Saint Boniface, PA

6:56 AM EST on March 05, 2015 (GMT -0500)
Johnstown-Cambria County | Change Station
CLOSE
Current Station
Airport
Location: Johnstown,
Elevation: 2283 ft
Nearby Weather Stations
Active Advisory: Winter Weather Advisory Active Notice: Local Storm Report

Elev 2283 ft 40.32 °N, 78.83 °W | Updated 18 minutes ago

Snow
Snow
17 °F
Feels Like 5 °F
N
10
Wind Variable Wind from NW

Today
High -- | Low -- °F
--% Chance of Precip.
Yesterday
High -- | Low -- °F
Precip. -- in
6:42 AM 6:10 PM
Full, 100% visible
Pressure 30.02 in
Visibility 1.5 miles
Clouds Mostly Cloudy 800 ft
Overcast 1800 ft
Windchill 5 °F
Dew Point 14 °F
Humidity 88%
Rainfall 0.03 in
Snow Depth Not available.
UV 0 out of 12
Pollen .60 out of 12
Air Quality Not available.
Flu Activity Not available.
SPECI KJST 051138Z AUTO 32009KT 1 1/2SM -SN BR BKN008 OVC018 M08/M10 A3002 RMK AO2 P0000 T10831100

More Conditions Fewer Conditions

Pressure 30.02 in
Visibility 1.5 miles
Clouds Mostly Cloudy 800 ft
Overcast 1800 ft
Windchill 5 °F
Dew Point 14 °F
Humidity 88%
Rainfall 0.03 in
Snow Depth Not available.
UV 0 out of 12
Pollen .60 out of 12
Air Quality Not available.
Flu Activity Not available.
SPECI KJST 051138Z AUTO 32009KT 1 1/2SM -SN BR BKN008 OVC018 M08/M10 A3002 RMK AO2 P0000 T10831100

More Conditions Fewer Conditions

10-Day Weather Forecast

Almanac

Astronomy

Mar. 05, 2015 Rise Set
Actual Time
Civil Twilight
Nautical Twilight
Astronomical Twilight
Moon
Length of Visible Light
Length of Day
Tomorrow will be .
, % of the Moon is Illuminated

Today's Extremes

State Highs State Lows

Community

WunderPhotos

Upload Photos

1,802,716 photos uploaded!

WunderBlogs® & News

Nearby

Air Quality

  Air Quality AQ Index Pollutant
Not available.

Snow Depth

Station Depth Elevation

Earthquake Activity

City Distance Mag. Time & Date
Minimum magnitude displayed is 2.5.

Coastal Water Temperatures

Place Temperature

Nearby Weather Stations

Winter Weather Advisory
Statement as of 3:57 AM EST on March 05, 2015

... Winter Weather Advisory remains in effect until 1 PM EST this
afternoon...

* hazard types... snow.

* Accumulations... 2 to 4 inches.

* Timing... light snow will fall through this morning... then taper
off by early this afternoon.

* Impacts... hazardous travel.

Precautionary/preparedness actions...

Hazardous winter weather conditions are expected or occurring.
Use caution if traveling. For the latest weather information... go
to weather.Gov/statecollege or monitor NOAA Weather Radio.

Report snow or ice accumulation to the National Weather Service
State College by sending an email to ctp.Stormreports@noaa.Gov...
posting to the NWS State College facebook Page... or tweet
@nwsstatecollege with the hashtag c... T... p... W... x.



Lambert/ceru